Northern Expedition — CFN5364 — position and weather

sailwx.info

Track history (hours):
 
Tides and Currents Weather Stations Pressure Air Temp Water Temp Dewpoint Dewpoint Depression Visibility Wind Speed Wind Dir Waves Ship Positions

Northern Expedition

Last reported at 2018-Jun-21 01:00 UTC. Time now 2018-Jun-21 01:02 UTC.
Position N 52°10' W 128°08'.

Length 151 m; draft 5 m.

Type: Ship. MMSI: 316014054.

Date/timePositionNaut miles runAvg speedWind from/ knotsBaromVisibWave heightAir tempDewpointWater temp
2018-Jun-21 01:00N 52°10' W 128°08'713.1
2018-Jun-21 00:30N 52°15' W 128°16'918.6
2018-Jun-21 00:00N 52°19' W 128°29'917.2
2018-Jun-20 23:30N 52°27' W 128°27'918.5
2018-Jun-20 23:00N 52°36' W 128°30'1 2.0
2018-Jun-20 22:27N 52°37' W 128°32'8116.0
2018-Jun-20 17:23N 53°43' W 129°50'820.2
2018-Jun-20 16:58N 53°49' W 129°59'919.5
2018-Jun-20 16:31N 53°55' W 130°11'1019.5
2018-Jun-20 16:00N 54°04' W 130°17'1019.4
2018-Jun-20 15:30N 54°14' W 130°21'4 4.5
2018-Jun-20 14:31N 54°18' W 130°21'0 0.0
2018-Jun-20 14:19N 54°18' W 130°21'0 0.0
2018-Jun-20 12:49N 54°18' W 130°21'0 0.0
2018-Jun-20 12:31N 54°18' W 130°21'0 0.0
2018-Jun-20 12:00N 54°18' W 130°21'0 0.0
2018-Jun-20 11:30N 54°18' W 130°21'0 0.0
2018-Jun-20 10:24N 54°18' W 130°21'0 0.0
2018-Jun-20 09:53N 54°18' W 130°21'0 0.0
2018-Jun-20 06:55N 54°18' W 130°21'0 0.0
2018-Jun-20 06:30N 54°18' W 130°21'510.9
2018-Jun-20 06:00N 54°12' W 130°21'1019.9
2018-Jun-20 05:30N 54°03' W 130°15'1019.3
2018-Jun-20 05:00N 53°54' W 130°09'1019.5
2018-Jun-20 04:30N 53°47' W 129°57'8618.0
2018-Jun-19 23:45N 52°39' W 128°32'518.6
2018-Jun-19 23:29N 52°34' W 128°28'919.3
2018-Jun-19 23:00N 52°25' W 128°29'917.2
2018-Jun-19 22:30N 52°17' W 128°27'1019.7
2018-Jun-19 22:00N 52°14' W 128°12'510.4
2018-Jun-19 21:29N 52°09' W 128°08'0 0.5
2018-Jun-19 20:32N 52°08' W 128°09'0 0.0
2018-Jun-19 20:28N 52°08' W 128°09'511.1
2018-Jun-19 20:00N 52°04' W 128°03'714.4
2018-Jun-19 19:30N 51°59' W 127°56'1020.5
2018-Jun-19 19:01N 51°49' W 127°55'1020.4
2018-Jun-19 18:31N 51°38' W 127°53'1020.1
2018-Jun-19 18:00N 51°29' W 127°51'1019.3
2018-Jun-19 17:30N 51°19' W 127°52'918.7
2018-Jun-19 17:00N 51°10' W 127°50'1019.8
2018-Jun-19 16:30N 51°00' W 127°46'1020.1
2018-Jun-19 16:00N 50°53' W 127°35'917.1
2018-Jun-19 15:29N 50°45' W 127°28'1 2.6
2018-Jun-19 14:59N 50°44' W 127°27'0 0.0
2018-Jun-19 14:29N 50°44' W 127°27'0 0.0
2018-Jun-19 13:58N 50°44' W 127°27'0 0.0
2018-Jun-19 13:28N 50°44' W 127°27'0 0.0
2018-Jun-19 11:45N 50°44' W 127°27'0 0.0
2018-Jun-19 10:45N 50°44' W 127°27'0 0.0
2018-Jun-19 09:57N 50°44' W 127°27'0 0.0
2018-Jun-19 09:08N 50°44' W 127°27'0 0.0
2018-Jun-19 06:31N 50°44' W 127°27'0 0.0
2018-Jun-19 06:19N 50°44' W 127°27'0 0.0
2018-Jun-19 05:55N 50°44' W 127°27'0 0.0
2018-Jun-19 05:19N 50°44' W 127°27'0 0.0
2018-Jun-19 05:00N 50°44' W 127°27'0 0.0
2018-Jun-19 04:24N 50°44' W 127°27'0 0.0
2018-Jun-19 04:00N 50°44' W 127°27'0 0.0
2018-Jun-19 03:12N 50°44' W 127°27'0 0.0
2018-Jun-19 02:54N 50°44' W 127°27'0 0.0
2018-Jun-18 02:19N 50°44' W 127°27'0 0.0
2018-Jun-18 01:55N 50°44' W 127°27'0 0.0
2018-Jun-18 01:18N 50°44' W 127°27'0 0.0
2018-Jun-18 01:00N 50°44' W 127°27'0 0.0
2018-Jun-18 00:12N 50°44' W 127°27'0 0.0
2018-Jun-18 00:00N 50°44' W 127°27'0 0.0
2018-Jun-17 23:30N 50°44' W 127°27'0 0.0
2018-Jun-17 22:53N 50°44' W 127°27'0 0.0
2018-Jun-17 21:36N 50°44' W 127°27'0 1.8
2018-Jun-17 21:30N 50°44' W 127°28'816.0
2018-Jun-17 21:00N 50°48' W 127°17'2 3.3
2018-Jun-17 20:29N 50°49' W 127°15'1 2.7
2018-Jun-17 20:01N 50°48' W 127°14'5 9.5
2018-Jun-17 19:29N 50°46' W 127°22'2 4.9
2018-Jun-17 19:00N 50°44' W 127°20'1019.6
2018-Jun-17 18:29N 50°37' W 127°08'1117.7
2018-Jun-17 17:53N 50°34' W 126°52'4520.0
2018-Jun-17 15:38N 50°22' W 125°44'1119.5
2018-Jun-17 15:03N 50°20' W 125°26'217.0
2018-Jun-17 14:56N 50°19' W 125°25'818.9
2018-Jun-17 14:30N 50°11' W 125°22'713.3
2018-Jun-17 14:00N 50°05' W 125°17'612.3
2018-Jun-17 13:30N 49°60' W 125°12'918.7
2018-Jun-17 13:00N 49°53' W 125°02'1020.0
2018-Jun-17 12:30N 49°46' W 124°51'918.7
2018-Jun-17 12:00N 49°39' W 124°41'815.8
2018-Jun-17 11:30N 49°46' W 124°48'917.6
2018-Jun-17 11:01N 49°51' W 124°60'714.6
2018-Jun-17 10:30N 49°56' W 125°08'611.7
2018-Jun-17 10:00N 49°53' W 125°01'1019.6
2018-Jun-17 09:30N 49°46' W 124°50'1019.4
2018-Jun-17 09:00N 49°40' W 124°38'1019.6
2018-Jun-17 08:30N 49°35' W 124°25'1518.8
2018-Jun-17 07:41N 49°27' W 124°05'418.5
2018-Jun-17 07:28N 49°25' W 123°59'2318.3
2018-Jun-17 06:12N 49°11' W 123°31'417.7
2018-Jun-17 05:57N 49°07' W 123°27'715.3
2018-Jun-17 05:29N 49°07' W 123°16'510.4
2018-Jun-17 05:00N 49°07' W 123°08'2 4.5
2018-Jun-17 04:30N 49°07' W 123°05'0 0.2
2018-Jun-17 04:00N 49°07' W 123°05'0 0.0
2018-Jun-17 03:30N 49°07' W 123°05'0 0.0
2018-Jun-17 02:57N 49°07' W 123°05'0 0.0
2018-Jun-17 02:27N 49°07' W 123°05'0 0.0
2018-Jun-17 01:50N 49°07' W 123°05'0 0.0
2018-Jun-17 01:23N 49°07' W 123°05'0 0.0
2018-Jun-17 00:59N 49°07' W 123°05'0 0.0
2018-Jun-17 00:20N 49°07' W 123°05'0 0.0
2018-Jun-16 23:58N 49°07' W 123°05'0 0.0
2018-Jun-16 23:13N 49°07' W 123°05'0 0.0
2018-Jun-16 22:49N 49°07' W 123°05'0 0.0
2018-Jun-16 22:25N 49°07' W 123°05'0 0.0
2018-Jun-16 21:58N 49°07' W 123°05'0 0.0
2018-Jun-16 21:30N 49°07' W 123°05'0 0.0
2018-Jun-16 21:00N 49°07' W 123°05'0 0.0
2018-Jun-16 20:30N 49°07' W 123°05'0 0.0
2018-Jun-16 19:54N 49°07' W 123°05'0 0.0
2018-Jun-16 19:29N 49°07' W 123°05'0 0.0
2018-Jun-16 18:59N 49°07' W 123°05'0 0.0
2018-Jun-16 18:29N 49°07' W 123°05'0 0.0
2018-Jun-16 17:59N 49°07' W 123°05'0 0.0
2018-Jun-16 17:29N 49°07' W 123°05'0 0.0
2018-Jun-16 16:58N 49°07' W 123°05'0 0.0
2018-Jun-16 16:28N 49°07' W 123°05'0 0.0
2018-Jun-16 15:58N 49°07' W 123°05'0 0.0
2018-Jun-16 15:28N 49°07' W 123°05'0 0.0
2018-Jun-16 14:58N 49°07' W 123°05'0 0.0
2018-Jun-16 14:30N 49°07' W 123°05'0 0.0
2018-Jun-16 13:57N 49°07' W 123°05'0 0.0
2018-Jun-16 13:30N 49°07' W 123°05'0 0.0
2018-Jun-16 13:00N 49°07' W 123°05'0 0.0
2018-Jun-16 12:29N 49°07' W 123°05'0 0.0
2018-Jun-16 11:56N 49°07' W 123°05'0 0.0
2018-Jun-16 11:29N 49°07' W 123°05'0 0.0
2018-Jun-16 10:56N 49°07' W 123°05'0 0.0
2018-Jun-16 10:29N 49°07' W 123°05'0 0.0
2018-Jun-16 09:58N 49°07' W 123°05'0 0.0
2018-Jun-16 09:28N 49°07' W 123°05'0 0.0
2018-Jun-16 08:55N 49°07' W 123°05'0 0.0
2018-Jun-16 08:28N 49°07' W 123°05'0 0.0
2018-Jun-16 08:00N 49°07' W 123°05'0 0.0
2018-Jun-16 07:30N 49°07' W 123°05'0 0.0
2018-Jun-16 07:00N 49°07' W 123°05'0 0.0
2018-Jun-16 06:30N 49°07' W 123°05'0 0.0
2018-Jun-16 06:00N 49°07' W 123°05'0 0.0
2018-Jun-16 05:29N 49°07' W 123°05'0 0.0
2018-Jun-16 04:59N 49°07' W 123°05'0 0.0
2018-Jun-16 04:23N 49°07' W 123°05'0 0.0
2018-Jun-16 03:59N 49°07' W 123°05'0 0.0
2018-Jun-16 03:29N 49°07' W 123°05'0 0.0
2018-Jun-16 02:58N 49°07' W 123°05'0 0.0
2018-Jun-16 02:28N 49°07' W 123°05'0 0.0
2018-Jun-16 01:58N 49°07' W 123°05'0 0.0
2018-Jun-16 01:28N 49°07' W 123°05'0 0.0
2018-Jun-16 01:01N 49°07' W 123°05'0 0.0
2018-Jun-16 00:30N 49°07' W 123°05'0 0.0
2018-Jun-16 00:00N 49°07' W 123°05'0 0.0
2018-Jun-15 23:30N 49°07' W 123°05'0 0.0
2018-Jun-15 23:00N 49°07' W 123°05'0 0.0
2018-Jun-15 22:29N 49°07' W 123°05'0 0.0
2018-Jun-15 21:59N 49°07' W 123°05'0 0.0
2018-Jun-15 21:29N 49°07' W 123°05'0 0.0
2018-Jun-15 20:59N 49°07' W 123°05'0 0.0
2018-Jun-15 20:28N 49°07' W 123°05'0 0.0
2018-Jun-15 19:49N 49°07' W 123°05'0 0.0
2018-Jun-15 19:28N 49°07' W 123°05'0 0.0
2018-Jun-15 18:58N 49°07' W 123°05'0 0.0
2018-Jun-15 18:28N 49°07' W 123°05'0 0.0
2018-Jun-15 18:00N 49°07' W 123°05'0 0.0
2018-Jun-15 17:30N 49°07' W 123°05'0 0.0
2018-Jun-15 17:00N 49°07' W 123°05'0 0.0
2018-Jun-15 16:30N 49°07' W 123°05'0 0.0
2018-Jun-15 16:00N 49°07' W 123°05'0 0.0
2018-Jun-15 15:29N 49°07' W 123°05'0 0.0
2018-Jun-15 14:59N 49°07' W 123°05'0 0.0
2018-Jun-15 14:29N 49°07' W 123°05'0 0.0
2018-Jun-15 13:59N 49°07' W 123°05'0 0.0
2018-Jun-15 13:29N 49°07' W 123°05'0 0.0
2018-Jun-15 12:58N 49°07' W 123°05'0 0.0
2018-Jun-15 12:28N 49°07' W 123°05'0 0.0
2018-Jun-15 11:58N 49°07' W 123°05'0 0.0
2018-Jun-15 11:28N 49°07' W 123°05'0 0.0
2018-Jun-15 11:00N 49°07' W 123°05'0 0.0
2018-Jun-15 10:30N 49°07' W 123°05'0 0.0
2018-Jun-15 10:00N 49°07' W 123°05'0 0.0
2018-Jun-15 09:30N 49°07' W 123°05'0 0.0
2018-Jun-15 09:00N 49°07' W 123°05'0 0.0
2018-Jun-15 08:29N 49°07' W 123°05'0 0.0
2018-Jun-15 07:59N 49°07' W 123°05'0 0.0
2018-Jun-15 07:29N 49°07' W 123°05'0 0.0
2018-Jun-15 06:56N 49°07' W 123°05'0 0.0
2018-Jun-15 06:29N 49°07' W 123°05'0 0.0
2018-Jun-15 05:58N 49°07' W 123°05'0 0.0
2018-Jun-15 05:28N 49°07' W 123°05'0 0.0
2018-Jun-15 04:58N 49°07' W 123°05'0 0.0
2018-Jun-15 04:25N 49°07' W 123°05'0 0.0
2018-Jun-15 03:57N 49°07' W 123°05'0 0.0
2018-Jun-15 03:30N 49°07' W 123°05'0 0.0
2018-Jun-15 03:00N 49°07' W 123°05'0 0.0
2018-Jun-15 02:27N 49°07' W 123°05'0 0.0
2018-Jun-15 02:00N 49°07' W 123°05'0 0.0
2018-Jun-15 01:29N 49°07' W 123°05'0 0.0
2018-Jun-15 00:53N 49°07' W 123°05'0 0.0
2018-Jun-15 00:29N 49°07' W 123°05'0 0.0
2018-Jun-14 23:59N 49°07' W 123°05'0 0.0
2018-Jun-14 23:28N 49°07' W 123°05'0 0.0
2018-Jun-14 22:58N 49°07' W 123°05'0 0.0
2018-Jun-14 22:28N 49°07' W 123°05'0 0.0
2018-Jun-14 21:58N 49°07' W 123°05'0 0.0
2018-Jun-14 21:28N 49°07' W 123°05'0 0.0
2018-Jun-14 21:00N 49°07' W 123°05'0 0.0
2018-Jun-14 20:27N 49°07' W 123°05'0 0.0
2018-Jun-14 20:00N 49°07' W 123°05'0 0.0
2018-Jun-14 19:29N 49°07' W 123°05'0 0.0
2018-Jun-14 18:59N 49°07' W 123°05'0 0.0
2018-Jun-14 18:29N 49°07' W 123°05'0 0.0
2018-Jun-14 17:59N 49°07' W 123°05'0 0.0
2018-Jun-14 17:28N 49°07' W 123°05'0 0.0
2018-Jun-14 16:58N 49°07' W 123°05'0 0.0
2018-Jun-14 16:30N 49°07' W 123°05'0 0.0
2018-Jun-14 16:00N 49°07' W 123°05'0 0.0
2018-Jun-14 15:30N 49°07' W 123°05'0 0.0
2018-Jun-14 14:57N 49°07' W 123°05'0 0.0
2018-Jun-14 14:29N 49°07' W 123°05'0 0.0
2018-Jun-14 13:56N 49°07' W 123°05'0 0.0
2018-Jun-14 13:29N 49°07' W 123°05'0 0.0
2018-Jun-14 12:59N 49°07' W 123°05'0 0.0
2018-Jun-14 12:29N 49°07' W 123°05'0 0.0
2018-Jun-14 11:58N 49°07' W 123°05'0 0.0
2018-Jun-14 11:28N 49°07' W 123°05'0 0.0
2018-Jun-14 10:58N 49°07' W 123°05'0 0.0
2018-Jun-14 10:28N 49°07' W 123°05'0 0.0
2018-Jun-14 09:58N 49°07' W 123°05'0 0.0
2018-Jun-14 09:30N 49°07' W 123°05'0 0.0
2018-Jun-14 09:00N 49°07' W 123°05'0 0.0
2018-Jun-14 08:30N 49°07' W 123°05'0 0.0
2018-Jun-14 08:00N 49°07' W 123°05'0 0.0
2018-Jun-14 07:29N 49°07' W 123°05'0 0.0
2018-Jun-14 06:59N 49°07' W 123°05'0 0.0
2018-Jun-14 06:29N 49°07' W 123°05'0 0.0
2018-Jun-14 05:59N 49°07' W 123°05'0 0.0
2018-Jun-14 05:29N 49°07' W 123°05'0 0.0
2018-Jun-14 04:58N 49°07' W 123°05'0 0.0
2018-Jun-14 04:28N 49°07' W 123°05'0 0.0
2018-Jun-14 03:58N 49°07' W 123°05'0 0.0
2018-Jun-14 03:25N 49°07' W 123°05'0 0.0
2018-Jun-14 03:01N 49°07' W 123°05'0 0.0
2018-Jun-14 02:30N 49°07' W 123°05'0 0.0
2018-Jun-14 02:00N 49°07' W 123°05'0 0.0
2018-Jun-14 01:27N 49°07' W 123°05'0 0.0
2018-Jun-14 01:00N 49°07' W 123°05'0 0.0
2018-Jun-14 00:26N 49°07' W 123°05'0 0.0
2018-Jun-13 23:56N 49°07' W 123°05'0 0.0
2018-Jun-13 23:29N 49°07' W 123°05'0 0.0
2018-Jun-13 22:59N 49°07' W 123°05'0 0.0
2018-Jun-13 22:29N 49°07' W 123°05'0 0.0
2018-Jun-13 21:58N 49°07' W 123°05'0 0.0
2018-Jun-13 21:28N 49°07' W 123°05'0 0.0
2018-Jun-13 20:58N 49°07' W 123°05'0 0.0
2018-Jun-13 20:28N 49°07' W 123°05'0 0.0
2018-Jun-13 20:01N 49°07' W 123°05'0 0.0
2018-Jun-13 19:30N 49°07' W 123°05'0 0.0
2018-Jun-13 19:00N 49°07' W 123°05'0 0.0
2018-Jun-13 18:30N 49°07' W 123°05'0 0.0
2018-Jun-13 18:00N 49°07' W 123°05'0 0.0
2018-Jun-13 17:29N 49°07' W 123°05'0 0.0
2018-Jun-13 16:59N 49°07' W 123°05'0 0.0
2018-Jun-13 16:29N 49°07' W 123°05'0 0.0
2018-Jun-13 15:59N 49°07' W 123°05'0 0.0
2018-Jun-13 15:29N 49°07' W 123°05'0 0.0
2018-Jun-13 14:58N 49°07' W 123°05'0 0.0
2018-Jun-13 14:25N 49°07' W 123°05'0 0.0
2018-Jun-13 13:58N 49°07' W 123°05'0 0.0
2018-Jun-13 13:28N 49°07' W 123°05'0 0.0
2018-Jun-13 13:00N 49°07' W 123°05'0 0.0
2018-Jun-13 12:30N 49°07' W 123°05'0 0.0
2018-Jun-13 12:00N 49°07' W 123°05'0 0.0
2018-Jun-13 11:30N 49°07' W 123°05'0 0.0
2018-Jun-13 11:00N 49°07' W 123°05'0 0.0
2018-Jun-13 10:29N 49°07' W 123°05'0 0.0
2018-Jun-13 09:59N 49°07' W 123°05'0 0.0
2018-Jun-13 09:29N 49°07' W 123°05'0 0.0
2018-Jun-13 08:59N 49°07' W 123°05'0 0.0
2018-Jun-13 08:29N 49°07' W 123°05'0 0.0
2018-Jun-13 07:58N 49°07' W 123°05'0 0.0
2018-Jun-13 07:28N 49°07' W 123°05'0 0.0
2018-Jun-13 06:58N 49°07' W 123°05'0 0.0
2018-Jun-13 06:28N 49°07' W 123°05'0 0.0
2018-Jun-13 06:00N 49°07' W 123°05'0 0.0
2018-Jun-13 05:30N 49°07' W 123°05'0 0.0
2018-Jun-13 05:00N 49°07' W 123°05'0 0.0
2018-Jun-13 04:30N 49°07' W 123°05'0 0.0
2018-Jun-13 04:00N 49°07' W 123°05'0 0.0
2018-Jun-13 03:29N 49°07' W 123°05'0 0.0
2018-Jun-13 02:59N 49°07' W 123°05'0 0.0
2018-Jun-13 02:29N 49°07' W 123°05'0 0.0
2018-Jun-13 01:59N 49°07' W 123°05'0 0.0
2018-Jun-13 01:28N 49°07' W 123°05'0 0.0
2018-Jun-13 00:58N 49°07' W 123°05'0 0.0
2018-Jun-13 00:28N 49°07' W 123°05'0 0.0
2018-Jun-12 23:58N 49°07' W 123°05'0 0.0
2018-Jun-12 23:28N 49°07' W 123°05'0 0.0
2018-Jun-12 22:57N 49°07' W 123°05'0 0.0
2018-Jun-12 22:30N 49°07' W 123°05'0 0.0
2018-Jun-12 22:00N 49°07' W 123°05'0 0.0
2018-Jun-12 21:30N 49°07' W 123°05'0 0.0
2018-Jun-12 21:00N 49°07' W 123°05'0 0.0
2018-Jun-12 20:30N 49°07' W 123°05'0 0.0
2018-Jun-12 20:00N 49°07' W 123°05'0 0.0
2018-Jun-12 19:30N 49°07' W 123°05'0 0.0
2018-Jun-12 18:58N 49°07' W 123°05'0 0.0
2018-Jun-12 18:28N 49°07' W 123°05'0 0.0
2018-Jun-12 17:58N 49°07' W 123°05'0 0.0
2018-Jun-12 17:30N 49°07' W 123°05'0 0.0
2018-Jun-12 17:00N 49°07' W 123°05'0 0.0
2018-Jun-12 16:27N 49°07' W 123°05'0 0.0
2018-Jun-12 16:00N 49°07' W 123°05'0 0.0
2018-Jun-12 15:30N 49°07' W 123°05'0 0.0
2018-Jun-12 14:59N 49°07' W 123°05'0 0.0
2018-Jun-12 14:29N 49°07' W 123°05'0 0.0
2018-Jun-12 13:59N 49°07' W 123°05'0 0.0
2018-Jun-12 13:29N 49°07' W 123°05'0 0.0
2018-Jun-12 12:59N 49°07' W 123°05'0 0.0
2018-Jun-12 12:28N 49°07' W 123°05'0 0.0
2018-Jun-12 11:58N 49°07' W 123°05'0 0.0
2018-Jun-12 11:28N 49°07' W 123°05'0 0.0
2018-Jun-12 10:58N 49°07' W 123°05'0 0.0
2018-Jun-12 10:31N 49°07' W 123°05'0 0.0
2018-Jun-12 10:00N 49°07' W 123°05'0 0.0
2018-Jun-12 09:30N 49°07' W 123°05'0 0.0
2018-Jun-12 09:00N 49°07' W 123°05'0 0.0
2018-Jun-12 08:30N 49°07' W 123°05'0 0.0
2018-Jun-12 07:59N 49°07' W 123°05'0 0.0
2018-Jun-12 07:26N 49°07' W 123°05'0 0.0
2018-Jun-12 06:59N 49°07' W 123°05'0 0.0
2018-Jun-12 06:29N 49°07' W 123°05'0 0.0
2018-Jun-12 05:58N 49°07' W 123°05'0 0.0
2018-Jun-12 05:28N 49°07' W 123°05'0 0.0
2018-Jun-12 04:58N 49°07' W 123°05'0 0.0
2018-Jun-12 04:28N 49°07' W 123°05'0 0.0
2018-Jun-12 03:58N 49°07' W 123°05'0 0.0
2018-Jun-12 03:30N 49°07' W 123°05'0 0.0
2018-Jun-12 03:00N 49°07' W 123°05'0 0.0
2018-Jun-12 02:27N 49°07' W 123°05'0 0.0
2018-Jun-12 02:00N 49°07' W 123°05'0 0.0
2018-Jun-12 01:30N 49°07' W 123°05'0 0.0
2018-Jun-12 00:56N 49°07' W 123°05'0 0.0
2018-Jun-12 00:29N 49°07' W 123°05'0 0.0
2018-Jun-11 23:59N 49°07' W 123°05'0 0.0
2018-Jun-11 23:29N 49°07' W 123°05'0 0.0
2018-Jun-11 22:55N 49°07' W 123°05'0 0.0
2018-Jun-11 22:28N 49°07' W 123°05'0 0.0
2018-Jun-11 21:55N 49°07' W 123°05'0 0.0
2018-Jun-11 21:28N 49°07' W 123°05'0 0.0
2018-Jun-11 20:58N 49°07' W 123°05'0 0.0
2018-Jun-11 20:30N 49°07' W 123°05'0 0.0
2018-Jun-11 20:00N 49°07' W 123°05'0 0.0
2018-Jun-11 19:30N 49°07' W 123°05'0 0.0
2018-Jun-11 19:00N 49°07' W 123°05'0 0.0
2018-Jun-11 18:27N 49°07' W 123°05'0 0.0
2018-Jun-11 17:56N 49°07' W 123°05'0 0.0
2018-Jun-11 17:29N 49°07' W 123°05'0 0.0
2018-Jun-11 16:59N 49°07' W 123°05'0 0.0
2018-Jun-11 16:29N 49°07' W 123°05'0 0.0
2018-Jun-11 15:58N 49°07' W 123°05'0 0.0
2018-Jun-11 15:28N 49°07' W 123°05'0 0.0
2018-Jun-11 14:58N 49°07' W 123°05'0 0.0
2018-Jun-11 14:28N 49°07' W 123°05'0 0.0
2018-Jun-11 13:58N 49°07' W 123°05'0 0.0
2018-Jun-11 13:30N 49°07' W 123°05'0 0.0
2018-Jun-11 12:57N 49°07' W 123°05'0 0.0
2018-Jun-11 12:30N 49°07' W 123°05'0 0.0
2018-Jun-11 12:00N 49°07' W 123°05'0 0.0
2018-Jun-11 11:30N 49°07' W 123°05'0 0.0
2018-Jun-11 10:59N 49°07' W 123°05'0 0.0
2018-Jun-11 10:29N 49°07' W 123°05'0 0.0
2018-Jun-11 09:59N 49°07' W 123°05'0 0.0
2018-Jun-11 09:29N 49°07' W 123°05'0 0.0
2018-Jun-11 08:58N 49°07' W 123°05'0 0.0
2018-Jun-11 08:28N 49°07' W 123°05'0 0.0
2018-Jun-11 07:55N 49°07' W 123°05'0 0.0
2018-Jun-11 07:28N 49°07' W 123°05'0 0.0
2018-Jun-11 06:58N 49°07' W 123°05'0 0.0
2018-Jun-11 06:30N 49°07' W 123°05'0 0.0
2018-Jun-11 05:57N 49°07' W 123°05'0 0.0
2018-Jun-11 05:30N 49°07' W 123°05'0 0.0
2018-Jun-11 05:00N 49°07' W 123°05'0 0.0
2018-Jun-11 04:29N 49°07' W 123°05'0 0.0
2018-Jun-11 03:59N 49°07' W 123°05'0 0.0
2018-Jun-11 03:29N 49°07' W 123°05'0 0.0
2018-Jun-11 02:59N 49°07' W 123°05'0 0.0
2018-Jun-11 02:29N 49°07' W 123°05'0 0.0
2018-Jun-11 01:58N 49°07' W 123°05'0 0.0
2018-Jun-11 01:25N 49°07' W 123°05'  
Track history (hours):
 
Tides and Currents Weather Stations Pressure Air Temp Water Temp Dewpoint Dewpoint Depression Visibility Wind Speed Wind Dir Waves Ship Positions

Northern Expedition

Last reported at 2018-Jun-21 01:00 UTC. Time now 2018-Jun-21 01:02 UTC.
Position N 52°10' W 128°08'.

Length 151 m; draft 5 m.

Type: Ship. MMSI: 316014054.

Date/timePositionNaut miles runAvg speedWind from/ knotsBaromVisibWave heightAir tempDewpointWater temp
2018-Jun-21 01:00N 52°10' W 128°08'713.1
2018-Jun-21 00:30N 52°15' W 128°16'918.6
2018-Jun-21 00:00N 52°19' W 128°29'917.2
2018-Jun-20 23:30N 52°27' W 128°27'918.5
2018-Jun-20 23:00N 52°36' W 128°30'1 2.0
2018-Jun-20 22:27N 52°37' W 128°32'8116.0
2018-Jun-20 17:23N 53°43' W 129°50'820.2
2018-Jun-20 16:58N 53°49' W 129°59'919.5
2018-Jun-20 16:31N 53°55' W 130°11'1019.5
2018-Jun-20 16:00N 54°04' W 130°17'1019.4
2018-Jun-20 15:30N 54°14' W 130°21'4 4.5
2018-Jun-20 14:31N 54°18' W 130°21'0 0.0
2018-Jun-20 14:19N 54°18' W 130°21'0 0.0
2018-Jun-20 12:49N 54°18' W 130°21'0 0.0
2018-Jun-20 12:31N 54°18' W 130°21'0 0.0
2018-Jun-20 12:00N 54°18' W 130°21'0 0.0
2018-Jun-20 11:30N 54°18' W 130°21'0 0.0
2018-Jun-20 10:24N 54°18' W 130°21'0 0.0
2018-Jun-20 09:53N 54°18' W 130°21'0 0.0
2018-Jun-20 06:55N 54°18' W 130°21'0 0.0
2018-Jun-20 06:30N 54°18' W 130°21'510.9
2018-Jun-20 06:00N 54°12' W 130°21'1019.9
2018-Jun-20 05:30N 54°03' W 130°15'1019.3
2018-Jun-20 05:00N 53°54' W 130°09'1019.5
2018-Jun-20 04:30N 53°47' W 129°57'8618.0
2018-Jun-19 23:45N 52°39' W 128°32'518.6
2018-Jun-19 23:29N 52°34' W 128°28'919.3
2018-Jun-19 23:00N 52°25' W 128°29'917.2
2018-Jun-19 22:30N 52°17' W 128°27'1019.7
2018-Jun-19 22:00N 52°14' W 128°12'510.4
2018-Jun-19 21:29N 52°09' W 128°08'0 0.5
2018-Jun-19 20:32N 52°08' W 128°09'0 0.0
2018-Jun-19 20:28N 52°08' W 128°09'511.1
2018-Jun-19 20:00N 52°04' W 128°03'714.4
2018-Jun-19 19:30N 51°59' W 127°56'1020.5
2018-Jun-19 19:01N 51°49' W 127°55'1020.4
2018-Jun-19 18:31N 51°38' W 127°53'1020.1
2018-Jun-19 18:00N 51°29' W 127°51'1019.3
2018-Jun-19 17:30N 51°19' W 127°52'918.7
2018-Jun-19 17:00N 51°10' W 127°50'1019.8
2018-Jun-19 16:30N 51°00' W 127°46'1020.1
2018-Jun-19 16:00N 50°53' W 127°35'917.1
2018-Jun-19 15:29N 50°45' W 127°28'1 2.6
2018-Jun-19 14:59N 50°44' W 127°27'0 0.0
2018-Jun-19 14:29N 50°44' W 127°27'0 0.0
2018-Jun-19 13:58N 50°44' W 127°27'0 0.0
2018-Jun-19 13:28N 50°44' W 127°27'0 0.0
2018-Jun-19 11:45N 50°44' W 127°27'0 0.0
2018-Jun-19 10:45N 50°44' W 127°27'0 0.0
2018-Jun-19 09:57N 50°44' W 127°27'0 0.0
2018-Jun-19 09:08N 50°44' W 127°27'0 0.0
2018-Jun-19 06:31N 50°44' W 127°27'0 0.0
2018-Jun-19 06:19N 50°44' W 127°27'0 0.0
2018-Jun-19 05:55N 50°44' W 127°27'0 0.0
2018-Jun-19 05:19N 50°44' W 127°27'0 0.0
2018-Jun-19 05:00N 50°44' W 127°27'0 0.0
2018-Jun-19 04:24N 50°44' W 127°27'0 0.0
2018-Jun-19 04:00N 50°44' W 127°27'0 0.0
2018-Jun-19 03:12N 50°44' W 127°27'0 0.0
2018-Jun-19 02:54N 50°44' W 127°27'0 0.0
2018-Jun-18 02:19N 50°44' W 127°27'0 0.0
2018-Jun-18 01:55N 50°44' W 127°27'0 0.0
2018-Jun-18 01:18N 50°44' W 127°27'0 0.0
2018-Jun-18 01:00N 50°44' W 127°27'0 0.0
2018-Jun-18 00:12N 50°44' W 127°27'0 0.0
2018-Jun-18 00:00N 50°44' W 127°27'0 0.0
2018-Jun-17 23:30N 50°44' W 127°27'0 0.0
2018-Jun-17 22:53N 50°44' W 127°27'0 0.0
2018-Jun-17 21:36N 50°44' W 127°27'0 1.8
2018-Jun-17 21:30N 50°44' W 127°28'816.0
2018-Jun-17 21:00N 50°48' W 127°17'2 3.3
2018-Jun-17 20:29N 50°49' W 127°15'1 2.7
2018-Jun-17 20:01N 50°48' W 127°14'5 9.5
2018-Jun-17 19:29N 50°46' W 127°22'2 4.9
2018-Jun-17 19:00N 50°44' W 127°20'1019.6
2018-Jun-17 18:29N 50°37' W 127°08'1117.7
2018-Jun-17 17:53N 50°34' W 126°52'4520.0
2018-Jun-17 15:38N 50°22' W 125°44'1119.5
2018-Jun-17 15:03N 50°20' W 125°26'217.0
2018-Jun-17 14:56N 50°19' W 125°25'818.9
2018-Jun-17 14:30N 50°11' W 125°22'713.3
2018-Jun-17 14:00N 50°05' W 125°17'612.3
2018-Jun-17 13:30N 49°60' W 125°12'918.7
2018-Jun-17 13:00N 49°53' W 125°02'1020.0
2018-Jun-17 12:30N 49°46' W 124°51'918.7
2018-Jun-17 12:00N 49°39' W 124°41'815.8
2018-Jun-17 11:30N 49°46' W 124°48'917.6
2018-Jun-17 11:01N 49°51' W 124°60'714.6
2018-Jun-17 10:30N 49°56' W 125°08'611.7
2018-Jun-17 10:00N 49°53' W 125°01'1019.6
2018-Jun-17 09:30N 49°46' W 124°50'1019.4
2018-Jun-17 09:00N 49°40' W 124°38'1019.6
2018-Jun-17 08:30N 49°35' W 124°25'1518.8
2018-Jun-17 07:41N 49°27' W 124°05'418.5
2018-Jun-17 07:28N 49°25' W 123°59'2318.3
2018-Jun-17 06:12N 49°11' W 123°31'417.7
2018-Jun-17 05:57N 49°07' W 123°27'715.3
2018-Jun-17 05:29N 49°07' W 123°16'510.4
2018-Jun-17 05:00N 49°07' W 123°08'2 4.5
2018-Jun-17 04:30N 49°07' W 123°05'0 0.2
2018-Jun-17 04:00N 49°07' W 123°05'0 0.0
2018-Jun-17 03:30N 49°07' W 123°05'0 0.0
2018-Jun-17 02:57N 49°07' W 123°05'0 0.0
2018-Jun-17 02:27N 49°07' W 123°05'0 0.0
2018-Jun-17 01:50N 49°07' W 123°05'0 0.0
2018-Jun-17 01:23N 49°07' W 123°05'0 0.0
2018-Jun-17 00:59N 49°07' W 123°05'0 0.0
2018-Jun-17 00:20N 49°07' W 123°05'0 0.0
2018-Jun-16 23:58N 49°07' W 123°05'0 0.0
2018-Jun-16 23:13N 49°07' W 123°05'0 0.0
2018-Jun-16 22:49N 49°07' W 123°05'0 0.0
2018-Jun-16 22:25N 49°07' W 123°05'0 0.0
2018-Jun-16 21:58N 49°07' W 123°05'0 0.0
2018-Jun-16 21:30N 49°07' W 123°05'0 0.0
2018-Jun-16 21:00N 49°07' W 123°05'0 0.0
2018-Jun-16 20:30N 49°07' W 123°05'0 0.0
2018-Jun-16 19:54N 49°07' W 123°05'0 0.0
2018-Jun-16 19:29N 49°07' W 123°05'0 0.0
2018-Jun-16 18:59N 49°07' W 123°05'0 0.0
2018-Jun-16 18:29N 49°07' W 123°05'0 0.0
2018-Jun-16 17:59N 49°07' W 123°05'0 0.0
2018-Jun-16 17:29N 49°07' W 123°05'0 0.0
2018-Jun-16 16:58N 49°07' W 123°05'0 0.0
2018-Jun-16 16:28N 49°07' W 123°05'0 0.0
2018-Jun-16 15:58N 49°07' W 123°05'0 0.0
2018-Jun-16 15:28N 49°07' W 123°05'0 0.0
2018-Jun-16 14:58N 49°07' W 123°05'0 0.0
2018-Jun-16 14:30N 49°07' W 123°05'0 0.0
2018-Jun-16 13:57N 49°07' W 123°05'0 0.0
2018-Jun-16 13:30N 49°07' W 123°05'0 0.0
2018-Jun-16 13:00N 49°07' W 123°05'0 0.0
2018-Jun-16 12:29N 49°07' W 123°05'0 0.0
2018-Jun-16 11:56N 49°07' W 123°05'0 0.0
2018-Jun-16 11:29N 49°07' W 123°05'0 0.0
2018-Jun-16 10:56N 49°07' W 123°05'0 0.0
2018-Jun-16 10:29N 49°07' W 123°05'0 0.0
2018-Jun-16 09:58N 49°07' W 123°05'0 0.0
2018-Jun-16 09:28N 49°07' W 123°05'0 0.0
2018-Jun-16 08:55N 49°07' W 123°05'0 0.0
2018-Jun-16 08:28N 49°07' W 123°05'0 0.0
2018-Jun-16 08:00N 49°07' W 123°05'0 0.0
2018-Jun-16 07:30N 49°07' W 123°05'0 0.0
2018-Jun-16 07:00N 49°07' W 123°05'0 0.0
2018-Jun-16 06:30N 49°07' W 123°05'0 0.0
2018-Jun-16 06:00N 49°07' W 123°05'0 0.0
2018-Jun-16 05:29N 49°07' W 123°05'0 0.0
2018-Jun-16 04:59N 49°07' W 123°05'0 0.0
2018-Jun-16 04:23N 49°07' W 123°05'0 0.0
2018-Jun-16 03:59N 49°07' W 123°05'0 0.0
2018-Jun-16 03:29N 49°07' W 123°05'0 0.0
2018-Jun-16 02:58N 49°07' W 123°05'0 0.0
2018-Jun-16 02:28N 49°07' W 123°05'0 0.0
2018-Jun-16 01:58N 49°07' W 123°05'0 0.0
2018-Jun-16 01:28N 49°07' W 123°05'0 0.0
2018-Jun-16 01:01N 49°07' W 123°05'0 0.0
2018-Jun-16 00:30N 49°07' W 123°05'0 0.0
2018-Jun-16 00:00N 49°07' W 123°05'0 0.0
2018-Jun-15 23:30N 49°07' W 123°05'0 0.0
2018-Jun-15 23:00N 49°07' W 123°05'0 0.0
2018-Jun-15 22:29N 49°07' W 123°05'0 0.0
2018-Jun-15 21:59N 49°07' W 123°05'0 0.0
2018-Jun-15 21:29N 49°07' W 123°05'0 0.0
2018-Jun-15 20:59N 49°07' W 123°05'0 0.0
2018-Jun-15 20:28N 49°07' W 123°05'0 0.0
2018-Jun-15 19:49N 49°07' W 123°05'0 0.0
2018-Jun-15 19:28N 49°07' W 123°05'0 0.0
2018-Jun-15 18:58N 49°07' W 123°05'0 0.0
2018-Jun-15 18:28N 49°07' W 123°05'0 0.0
2018-Jun-15 18:00N 49°07' W 123°05'0 0.0
2018-Jun-15 17:30N 49°07' W 123°05'0 0.0
2018-Jun-15 17:00N 49°07' W 123°05'0 0.0
2018-Jun-15 16:30N 49°07' W 123°05'0 0.0
2018-Jun-15 16:00N 49°07' W 123°05'0 0.0
2018-Jun-15 15:29N 49°07' W 123°05'0 0.0
2018-Jun-15 14:59N 49°07' W 123°05'0 0.0
2018-Jun-15 14:29N 49°07' W 123°05'0 0.0
2018-Jun-15 13:59N 49°07' W 123°05'0 0.0
2018-Jun-15 13:29N 49°07' W 123°05'0 0.0
2018-Jun-15 12:58N 49°07' W 123°05'0 0.0
2018-Jun-15 12:28N 49°07' W 123°05'0 0.0
2018-Jun-15 11:58N 49°07' W 123°05'0 0.0
2018-Jun-15 11:28N 49°07' W 123°05'0 0.0
2018-Jun-15 11:00N 49°07' W 123°05'0 0.0
2018-Jun-15 10:30N 49°07' W 123°05'0 0.0
2018-Jun-15 10:00N 49°07' W 123°05'0 0.0
2018-Jun-15 09:30N 49°07' W 123°05'0 0.0
2018-Jun-15 09:00N 49°07' W 123°05'0 0.0
2018-Jun-15 08:29N 49°07' W 123°05'0 0.0
2018-Jun-15 07:59N 49°07' W 123°05'0 0.0
2018-Jun-15 07:29N 49°07' W 123°05'0 0.0
2018-Jun-15 06:56N 49°07' W 123°05'0 0.0
2018-Jun-15 06:29N 49°07' W 123°05'0 0.0
2018-Jun-15 05:58N 49°07' W 123°05'0 0.0
2018-Jun-15 05:28N 49°07' W 123°05'0 0.0
2018-Jun-15 04:58N 49°07' W 123°05'0 0.0
2018-Jun-15 04:25N 49°07' W 123°05'0 0.0
2018-Jun-15 03:57N 49°07' W 123°05'0 0.0
2018-Jun-15 03:30N 49°07' W 123°05'0 0.0
2018-Jun-15 03:00N 49°07' W 123°05'0 0.0
2018-Jun-15 02:27N 49°07' W 123°05'0 0.0
2018-Jun-15 02:00N 49°07' W 123°05'0 0.0
2018-Jun-15 01:29N 49°07' W 123°05'0 0.0
2018-Jun-15 00:53N 49°07' W 123°05'0 0.0
2018-Jun-15 00:29N 49°07' W 123°05'0 0.0
2018-Jun-14 23:59N 49°07' W 123°05'0 0.0
2018-Jun-14 23:28N 49°07' W 123°05'0 0.0
2018-Jun-14 22:58N 49°07' W 123°05'0 0.0
2018-Jun-14 22:28N 49°07' W 123°05'0 0.0
2018-Jun-14 21:58N 49°07' W 123°05'0 0.0
2018-Jun-14 21:28N 49°07' W 123°05'0 0.0
2018-Jun-14 21:00N 49°07' W 123°05'0 0.0
2018-Jun-14 20:27N 49°07' W 123°05'0 0.0
2018-Jun-14 20:00N 49°07' W 123°05'0 0.0
2018-Jun-14 19:29N 49°07' W 123°05'0 0.0
2018-Jun-14 18:59N 49°07' W 123°05'0 0.0
2018-Jun-14 18:29N 49°07' W 123°05'0 0.0
2018-Jun-14 17:59N 49°07' W 123°05'0 0.0
2018-Jun-14 17:28N 49°07' W 123°05'0 0.0
2018-Jun-14 16:58N 49°07' W 123°05'0 0.0
2018-Jun-14 16:30N 49°07' W 123°05'0 0.0
2018-Jun-14 16:00N 49°07' W 123°05'0 0.0
2018-Jun-14 15:30N 49°07' W 123°05'0 0.0
2018-Jun-14 14:57N 49°07' W 123°05'0 0.0
2018-Jun-14 14:29N 49°07' W 123°05'0 0.0
2018-Jun-14 13:56N 49°07' W 123°05'0 0.0
2018-Jun-14 13:29N 49°07' W 123°05'0 0.0
2018-Jun-14 12:59N 49°07' W 123°05'0 0.0
2018-Jun-14 12:29N 49°07' W 123°05'0 0.0
2018-Jun-14 11:58N 49°07' W 123°05'0 0.0
2018-Jun-14 11:28N 49°07' W 123°05'0 0.0
2018-Jun-14 10:58N 49°07' W 123°05'0 0.0
2018-Jun-14 10:28N 49°07' W 123°05'0 0.0
2018-Jun-14 09:58N 49°07' W 123°05'0 0.0
2018-Jun-14 09:30N 49°07' W 123°05'0 0.0
2018-Jun-14 09:00N 49°07' W 123°05'0 0.0
2018-Jun-14 08:30N 49°07' W 123°05'0 0.0
2018-Jun-14 08:00N 49°07' W 123°05'0 0.0
2018-Jun-14 07:29N 49°07' W 123°05'0 0.0
2018-Jun-14 06:59N 49°07' W 123°05'0 0.0
2018-Jun-14 06:29N 49°07' W 123°05'0 0.0
2018-Jun-14 05:59N 49°07' W 123°05'0 0.0
2018-Jun-14 05:29N 49°07' W 123°05'0 0.0
2018-Jun-14 04:58N 49°07' W 123°05'0 0.0
2018-Jun-14 04:28N 49°07' W 123°05'0 0.0
2018-Jun-14 03:58N 49°07' W 123°05'0 0.0
2018-Jun-14 03:25N 49°07' W 123°05'0 0.0
2018-Jun-14 03:01N 49°07' W 123°05'0 0.0
2018-Jun-14 02:30N 49°07' W 123°05'0 0.0
2018-Jun-14 02:00N 49°07' W 123°05'0 0.0
2018-Jun-14 01:27N 49°07' W 123°05'0 0.0
2018-Jun-14 01:00N 49°07' W 123°05'0 0.0
2018-Jun-14 00:26N 49°07' W 123°05'0 0.0
2018-Jun-13 23:56N 49°07' W 123°05'0 0.0
2018-Jun-13 23:29N 49°07' W 123°05'0 0.0
2018-Jun-13 22:59N 49°07' W 123°05'0 0.0
2018-Jun-13 22:29N 49°07' W 123°05'0 0.0
2018-Jun-13 21:58N 49°07' W 123°05'0 0.0
2018-Jun-13 21:28N 49°07' W 123°05'0 0.0
2018-Jun-13 20:58N 49°07' W 123°05'0 0.0
2018-Jun-13 20:28N 49°07' W 123°05'0 0.0
2018-Jun-13 20:01N 49°07' W 123°05'0 0.0
2018-Jun-13 19:30N 49°07' W 123°05'0 0.0
2018-Jun-13 19:00N 49°07' W 123°05'0 0.0
2018-Jun-13 18:30N 49°07' W 123°05'0 0.0
2018-Jun-13 18:00N 49°07' W 123°05'0 0.0
2018-Jun-13 17:29N 49°07' W 123°05'0 0.0
2018-Jun-13 16:59N 49°07' W 123°05'0 0.0
2018-Jun-13 16:29N 49°07' W 123°05'0 0.0
2018-Jun-13 15:59N 49°07' W 123°05'0 0.0
2018-Jun-13 15:29N 49°07' W 123°05'0 0.0
2018-Jun-13 14:58N 49°07' W 123°05'0 0.0
2018-Jun-13 14:25N 49°07' W 123°05'0 0.0
2018-Jun-13 13:58N 49°07' W 123°05'0 0.0
2018-Jun-13 13:28N 49°07' W 123°05'0 0.0
2018-Jun-13 13:00N 49°07' W 123°05'0 0.0
2018-Jun-13 12:30N 49°07' W 123°05'0 0.0
2018-Jun-13 12:00N 49°07' W 123°05'0 0.0
2018-Jun-13 11:30N 49°07' W 123°05'0 0.0
2018-Jun-13 11:00N 49°07' W 123°05'0 0.0
2018-Jun-13 10:29N 49°07' W 123°05'0 0.0
2018-Jun-13 09:59N 49°07' W 123°05'0 0.0
2018-Jun-13 09:29N 49°07' W 123°05'0 0.0
2018-Jun-13 08:59N 49°07' W 123°05'0 0.0
2018-Jun-13 08:29N 49°07' W 123°05'0 0.0
2018-Jun-13 07:58N 49°07' W 123°05'0 0.0
2018-Jun-13 07:28N 49°07' W 123°05'0 0.0
2018-Jun-13 06:58N 49°07' W 123°05'0 0.0
2018-Jun-13 06:28N 49°07' W 123°05'0 0.0
2018-Jun-13 06:00N 49°07' W 123°05'0 0.0
2018-Jun-13 05:30N 49°07' W 123°05'0 0.0
2018-Jun-13 05:00N 49°07' W 123°05'0 0.0
2018-Jun-13 04:30N 49°07' W 123°05'0 0.0
2018-Jun-13 04:00N 49°07' W 123°05'0 0.0
2018-Jun-13 03:29N 49°07' W 123°05'0 0.0
2018-Jun-13 02:59N 49°07' W 123°05'0 0.0
2018-Jun-13 02:29N 49°07' W 123°05'0 0.0
2018-Jun-13 01:59N 49°07' W 123°05'0 0.0
2018-Jun-13 01:28N 49°07' W 123°05'0 0.0
2018-Jun-13 00:58N 49°07' W 123°05'0 0.0
2018-Jun-13 00:28N 49°07' W 123°05'0 0.0
2018-Jun-12 23:58N 49°07' W 123°05'0 0.0
2018-Jun-12 23:28N 49°07' W 123°05'0 0.0
2018-Jun-12 22:57N 49°07' W 123°05'0 0.0
2018-Jun-12 22:30N 49°07' W 123°05'0 0.0
2018-Jun-12 22:00N 49°07' W 123°05'0 0.0
2018-Jun-12 21:30N 49°07' W 123°05'0 0.0
2018-Jun-12 21:00N 49°07' W 123°05'0 0.0
2018-Jun-12 20:30N 49°07' W 123°05'0 0.0
2018-Jun-12 20:00N 49°07' W 123°05'0 0.0
2018-Jun-12 19:30N 49°07' W 123°05'0 0.0
2018-Jun-12 18:58N 49°07' W 123°05'0 0.0
2018-Jun-12 18:28N 49°07' W 123°05'0 0.0
2018-Jun-12 17:58N 49°07' W 123°05'0 0.0
2018-Jun-12 17:30N 49°07' W 123°05'0 0.0
2018-Jun-12 17:00N 49°07' W 123°05'0 0.0
2018-Jun-12 16:27N 49°07' W 123°05'0 0.0
2018-Jun-12 16:00N 49°07' W 123°05'0 0.0
2018-Jun-12 15:30N 49°07' W 123°05'0 0.0
2018-Jun-12 14:59N 49°07' W 123°05'0 0.0
2018-Jun-12 14:29N 49°07' W 123°05'0 0.0
2018-Jun-12 13:59N 49°07' W 123°05'0 0.0
2018-Jun-12 13:29N 49°07' W 123°05'0 0.0
2018-Jun-12 12:59N 49°07' W 123°05'0 0.0
2018-Jun-12 12:28N 49°07' W 123°05'0 0.0
2018-Jun-12 11:58N 49°07' W 123°05'0 0.0
2018-Jun-12 11:28N 49°07' W 123°05'0 0.0
2018-Jun-12 10:58N 49°07' W 123°05'0 0.0
2018-Jun-12 10:31N 49°07' W 123°05'0 0.0
2018-Jun-12 10:00N 49°07' W 123°05'0 0.0
2018-Jun-12 09:30N 49°07' W 123°05'0 0.0
2018-Jun-12 09:00N 49°07' W 123°05'0 0.0
2018-Jun-12 08:30N 49°07' W 123°05'0 0.0
2018-Jun-12 07:59N 49°07' W 123°05'0 0.0
2018-Jun-12 07:26N 49°07' W 123°05'0 0.0
2018-Jun-12 06:59N 49°07' W 123°05'0 0.0
2018-Jun-12 06:29N 49°07' W 123°05'0 0.0
2018-Jun-12 05:58N 49°07' W 123°05'0 0.0
2018-Jun-12 05:28N 49°07' W 123°05'0 0.0
2018-Jun-12 04:58N 49°07' W 123°05'0 0.0
2018-Jun-12 04:28N 49°07' W 123°05'0 0.0
2018-Jun-12 03:58N 49°07' W 123°05'0 0.0
2018-Jun-12 03:30N 49°07' W 123°05'0 0.0
2018-Jun-12 03:00N 49°07' W 123°05'0 0.0
2018-Jun-12 02:27N 49°07' W 123°05'0 0.0
2018-Jun-12 02:00N 49°07' W 123°05'0 0.0
2018-Jun-12 01:30N 49°07' W 123°05'0 0.0
2018-Jun-12 00:56N 49°07' W 123°05'0 0.0
2018-Jun-12 00:29N 49°07' W 123°05'0 0.0
2018-Jun-11 23:59N 49°07' W 123°05'0 0.0
2018-Jun-11 23:29N 49°07' W 123°05'0 0.0
2018-Jun-11 22:55N 49°07' W 123°05'0 0.0
2018-Jun-11 22:28N 49°07' W 123°05'0 0.0
2018-Jun-11 21:55N 49°07' W 123°05'0 0.0
2018-Jun-11 21:28N 49°07' W 123°05'0 0.0
2018-Jun-11 20:58N 49°07' W 123°05'0 0.0
2018-Jun-11 20:30N 49°07' W 123°05'0 0.0
2018-Jun-11 20:00N 49°07' W 123°05'0 0.0
2018-Jun-11 19:30N 49°07' W 123°05'0 0.0
2018-Jun-11 19:00N 49°07' W 123°05'0 0.0
2018-Jun-11 18:27N 49°07' W 123°05'0 0.0
2018-Jun-11 17:56N 49°07' W 123°05'0 0.0
2018-Jun-11 17:29N 49°07' W 123°05'0 0.0
2018-Jun-11 16:59N 49°07' W 123°05'0 0.0
2018-Jun-11 16:29N 49°07' W 123°05'0 0.0
2018-Jun-11 15:58N 49°07' W 123°05'0 0.0
2018-Jun-11 15:28N 49°07' W 123°05'0 0.0
2018-Jun-11 14:58N 49°07' W 123°05'0 0.0
2018-Jun-11 14:28N 49°07' W 123°05'0 0.0
2018-Jun-11 13:58N 49°07' W 123°05'0 0.0
2018-Jun-11 13:30N 49°07' W 123°05'0 0.0
2018-Jun-11 12:57N 49°07' W 123°05'0 0.0
2018-Jun-11 12:30N 49°07' W 123°05'0 0.0
2018-Jun-11 12:00N 49°07' W 123°05'0 0.0
2018-Jun-11 11:30N 49°07' W 123°05'0 0.0
2018-Jun-11 10:59N 49°07' W 123°05'0 0.0
2018-Jun-11 10:29N 49°07' W 123°05'0 0.0
2018-Jun-11 09:59N 49°07' W 123°05'0 0.0
2018-Jun-11 09:29N 49°07' W 123°05'0 0.0
2018-Jun-11 08:58N 49°07' W 123°05'0 0.0
2018-Jun-11 08:28N 49°07' W 123°05'0 0.0
2018-Jun-11 07:55N 49°07' W 123°05'0 0.0
2018-Jun-11 07:28N 49°07' W 123°05'0 0.0
2018-Jun-11 06:58N 49°07' W 123°05'0 0.0
2018-Jun-11 06:30N 49°07' W 123°05'0 0.0
2018-Jun-11 05:57N 49°07' W 123°05'0 0.0
2018-Jun-11 05:30N 49°07' W 123°05'0 0.0
2018-Jun-11 05:00N 49°07' W 123°05'0 0.0
2018-Jun-11 04:29N 49°07' W 123°05'0 0.0
2018-Jun-11 03:59N 49°07' W 123°05'0 0.0
2018-Jun-11 03:29N 49°07' W 123°05'0 0.0
2018-Jun-11 02:59N 49°07' W 123°05'0 0.0
2018-Jun-11 02:29N 49°07' W 123°05'0 0.0
2018-Jun-11 01:58N 49°07' W 123°05'0 0.0
2018-Jun-11 01:25N 49°07' W 123°05'  

Dump ship's entire track history